Time;durP1;ratioP1;P1;durP2;ratioP2;P2;SDS_P1;SDS_P2;PMS_P1;PMS_P2;Temp;Humidity;BMP_temperature;BMP_pressure;BME280_temperature;BME280_humidity;BME280_pressure;Samples;Min_cycle;Max_cycle;Signal;HPM_P1;HPM_P2
2022/06/19 13:32:46;;;;;;;10.23;6.03;;;36.80;9.60;;;;;;5058697;23;20507;-79
2022/06/19 13:35:24;;;;;;;11.47;5.20;;;36.90;9.40;;;;;;4867502;29;20473;-79
2022/06/19 13:38:07;;;;;;;14.47;5.40;;;36.80;9.00;;;;;;4868558;29;20484;-79
2022/06/19 13:40:41;;;;;;;11.10;5.90;;;36.80;9.00;;;;;;4867761;29;20454;-79
2022/06/19 13:43:21;;;;;;;8.60;5.37;;;36.90;9.10;;;;;;4849545;29;21015;-79
2022/06/19 13:46:00;;;;;;;7.23;5.10;;;37.10;9.20;;;;;;4869633;23;20496;-75
2022/06/19 13:48:35;;;;;;;9.33;5.50;;;37.40;9.20;;;;;;4884129;29;20480;-76
2022/06/19 13:51:07;;;;;;;9.00;5.27;;;37.30;8.90;;;;;;4881085;29;20551;-76
2022/06/19 13:53:42;;;;;;;7.63;5.00;;;37.40;9.00;;;;;;4884691;29;20501;-75
2022/06/19 13:56:18;;;;;;;12.10;5.47;;;37.50;9.10;;;;;;4872428;29;20480;-76
2022/06/19 13:58:59;;;;;;;12.27;5.20;;;37.50;8.80;;;;;;4882983;29;20546;-77
2022/06/19 14:01:30;;;;;;;11.60;6.10;;;37.50;9.00;;;;;;4877309;29;20548;-76
2022/06/19 14:07:12;;;;;;;7.20;5.17;;;37.60;9.40;;;;;;4883059;29;21033;-76
2022/06/19 14:09:47;;;;;;;8.47;5.47;;;37.50;9.40;;;;;;4880355;29;20476;-76
2022/06/19 14:12:17;;;;;;;13.13;6.20;;;37.50;9.40;;;;;;4887899;29;20988;-76
2022/06/19 14:14:46;;;;;;;11.73;5.17;;;37.60;8.90;;;;;;4879301;29;20462;-77
2022/06/19 14:17:27;;;;;;;10.50;6.17;;;37.50;8.80;;;;;;4875879;29;20500;-78
2022/06/19 14:20:05;;;;;;;8.17;5.13;;;37.40;9.30;;;;;;4875863;29;20496;-77
2022/06/19 14:22:40;;;;;;;11.57;5.83;;;37.50;9.40;;;;;;4879823;29;20497;-75
2022/06/19 14:25:18;;;;;;;9.53;5.30;;;37.40;9.30;;;;;;4878446;29;20460;-76
2022/06/19 14:27:58;;;;;;;13.70;5.73;;;37.60;9.20;;;;;;4879673;29;20482;-75
2022/06/19 14:30:31;;;;;;;8.80;5.63;;;37.40;9.20;;;;;;4868136;29;20492;-75
2022/06/19 14:33:00;;;;;;;10.90;5.70;;;37.50;8.40;;;;;;4883996;29;20465;-75
2022/06/19 14:35:33;;;;;;;14.53;5.53;;;37.50;9.20;;;;;;4878995;29;20560;-75
2022/06/19 14:38:31;;;;;;;10.40;5.30;;;37.60;8.60;;;;;;4872470;29;20459;-75
2022/06/19 14:41:06;;;;;;;14.93;6.17;;;37.70;8.70;;;;;;4876807;29;20524;-75
2022/06/19 14:43:40;;;;;;;14.10;5.27;;;37.70;8.80;;;;;;4879702;29;20492;-76
2022/06/19 14:46:51;;;;;;;18.93;5.90;;;37.70;9.50;;;;;;4868716;29;20512;-76
2022/06/19 14:49:59;;;;;;;13.80;5.77;;;37.80;8.30;;;;;;4872680;29;20945;-76
2022/06/19 14:53:05;;;;;;;11.73;5.50;;;37.60;8.40;;;;;;4847700;29;20811;-76
2022/06/19 14:55:40;;;;;;;8.07;5.60;;;37.60;8.40;;;;;;4867538;29;20566;-76
2022/06/19 14:58:15;;;;;;;9.67;5.97;;;37.60;8.20;;;;;;4878367;29;20459;-76
2022/06/19 15:00:45;;;;;;;9.07;5.50;;;37.50;8.70;;;;;;4867870;29;20448;-77
2022/06/19 15:03:45;;;;;;;10.90;5.70;;;37.60;8.70;;;;;;4879988;29;20491;-76
2022/06/19 15:06:17;;;;;;;15.40;5.57;;;37.40;8.40;;;;;;4886035;29;20978;-76
2022/06/19 15:08:54;;;;;;;16.77;6.03;;;37.60;8.60;;;;;;4875448;29;20465;-76
2022/06/19 15:11:27;;;;;;;11.17;5.80;;;37.60;8.60;;;;;;4874752;29;22706;-77
2022/06/19 15:13:59;;;;;;;7.03;5.50;;;37.70;8.60;;;;;;4879886;29;20545;-77
2022/06/19 15:16:33;;;;;;;11.10;5.60;;;37.70;9.10;;;;;;4874027;29;20496;-77
2022/06/19 15:19:05;;;;;;;10.50;5.30;;;37.70;8.40;;;;;;4866227;29;20457;-77
2022/06/19 15:21:35;;;;;;;16.03;5.67;;;37.70;8.50;;;;;;4881534;29;20950;-77
2022/06/19 15:24:02;;;;;;;8.03;5.53;;;37.80;8.10;;;;;;4880760;29;20492;-77
2022/06/19 15:26:43;;;;;;;14.93;5.60;;;37.80;7.70;;;;;;4881250;29;20537;-77
2022/06/19 15:29:40;;;;;;;11.90;5.70;;;37.60;7.40;;;;;;4880437;29;20468;-77
2022/06/19 15:32:43;;;;;;;12.90;4.93;;;37.60;8.60;;;;;;4879122;29;20983;-76
2022/06/19 15:35:31;;;;;;;10.20;5.33;;;37.50;7.60;;;;;;4865169;29;20461;-77
2022/06/19 15:38:38;;;;;;;7.97;5.63;;;37.40;7.80;;;;;;4865033;29;20462;-76
2022/06/19 15:41:57;;;;;;;8.73;5.03;;;37.40;7.90;;;;;;4864969;29;20465;-77
2022/06/19 15:44:53;;;;;;;11.50;5.87;;;37.60;7.90;;;;;;4865119;29;20533;-77
2022/06/19 15:47:21;;;;;;;14.30;5.47;;;37.60;7.90;;;;;;4870097;29;20488;-77
2022/06/19 15:49:52;;;;;;;13.70;4.77;;;37.60;7.30;;;;;;4884522;29;20484;-78
2022/06/19 15:52:23;;;;;;;10.70;5.30;;;37.60;7.30;;;;;;4885649;29;20469;-77
2022/06/19 15:54:54;;;;;;;10.60;5.13;;;37.60;6.90;;;;;;4883836;29;20438;-78
2022/06/19 15:57:23;;;;;;;10.20;5.00;;;37.60;6.70;;;;;;4867923;29;20482;-78
2022/06/19 15:59:54;;;;;;;11.30;5.60;;;37.60;6.60;;;;;;4867791;29;20462;-77
2022/06/19 16:02:26;;;;;;;6.17;4.90;;;37.60;6.70;;;;;;4887983;29;20475;-78
2022/06/19 16:04:55;;;;;;;7.33;5.47;;;37.60;7.10;;;;;;4886883;29;20465;-78
2022/06/19 16:07:30;;;;;;;9.43;5.67;;;37.50;7.10;;;;;;4868694;29;20482;-79
2022/06/19 16:09:58;;;;;;;7.77;5.00;;;37.50;7.20;;;;;;4871769;29;20461;-77
2022/06/19 16:12:30;;;;;;;11.80;5.77;;;37.40;7.20;;;;;;4872603;29;20534;-78
2022/06/19 16:15:17;;;;;;;9.60;5.90;;;37.30;7.40;;;;;;4871831;29;20474;-77
2022/06/19 16:17:51;;;;;;;7.50;5.37;;;37.50;7.50;;;;;;4877852;29;20454;-76
2022/06/19 16:20:21;;;;;;;8.30;5.93;;;37.60;7.50;;;;;;4878657;29;20462;-76
2022/06/19 16:22:50;;;;;;;11.70;5.50;;;37.80;7.70;;;;;;4870093;29;20887;-77
2022/06/19 16:25:29;;;;;;;16.00;5.67;;;37.90;7.20;;;;;;4881022;29;20484;-77
2022/06/19 16:28:00;;;;;;;12.33;5.00;;;38.00;6.70;;;;;;4873845;29;21015;-77
2022/06/19 16:30:39;;;;;;;9.80;5.07;;;38.20;7.10;;;;;;4865132;29;20518;-77
2022/06/19 16:33:06;;;;;;;12.20;5.53;;;38.40;6.60;;;;;;4873898;29;20476;-78
2022/06/19 16:44:12;;;;;;;13.73;5.10;;;38.60;6.20;;;;;;4874090;29;20484;-78
2022/06/19 16:46:47;;;;;;;12.77;4.90;;;38.70;6.20;;;;;;4881979;29;20594;-77
2022/06/19 16:49:23;;;;;;;10.50;7.00;;;38.80;6.20;;;;;;4887174;29;20823;-77
2022/06/19 16:51:52;;;;;;;12.97;5.27;;;38.80;6.20;;;;;;4879789;29;20493;-77
2022/06/19 16:54:30;;;;;;;6.90;6.20;;;38.70;6.60;;;;;;4883518;29;20521;-79
2022/06/19 16:57:07;;;;;;;10.10;4.80;;;39.10;5.80;;;;;;4882751;29;21001;-78
2022/06/19 16:59:36;;;;;;;14.77;5.90;;;39.30;5.80;;;;;;4871911;29;20461;-78
2022/06/19 17:02:06;;;;;;;13.23;5.20;;;39.30;5.90;;;;;;4871293;29;20564;-76
2022/06/19 17:04:34;;;;;;;13.40;5.70;;;39.20;5.80;;;;;;4883449;29;20507;-77
2022/06/19 17:07:03;;;;;;;10.87;5.70;;;39.10;6.50;;;;;;4878205;29;20493;-76
2022/06/19 17:09:37;;;;;;;12.77;5.43;;;39.10;6.60;;;;;;4888000;29;20464;-76
2022/06/19 17:12:10;;;;;;;11.80;5.83;;;38.90;7.10;;;;;;4871012;29;20451;-76
2022/06/19 17:14:39;;;;;;;7.87;5.27;;;39.40;5.90;;;;;;4880417;29;20480;-76
2022/06/19 17:17:10;;;;;;;15.20;5.33;;;39.70;6.10;;;;;;4873553;29;20488;-76
2022/06/19 17:19:55;;;;;;;11.57;5.77;;;39.60;6.00;;;;;;4872265;29;20493;-77
2022/06/19 17:22:24;;;;;;;9.90;5.33;;;39.60;6.00;;;;;;4881541;29;20484;-78
2022/06/19 17:25:01;;;;;;;11.73;5.77;;;39.40;5.90;;;;;;4882894;29;20496;-78
2022/06/19 17:27:30;;;;;;;14.77;5.70;;;39.20;5.90;;;;;;4890386;29;20575;-76
2022/06/19 17:30:12;;;;;;;9.00;5.20;;;39.20;6.40;;;;;;4889617;29;20472;-77
2022/06/19 17:32:44;;;;;;;12.60;6.10;;;39.20;6.50;;;;;;4877373;29;20847;-77
2022/06/19 17:35:37;;;;;;;8.10;5.70;;;39.40;5.90;;;;;;4872197;29;20457;-76
2022/06/19 17:38:06;;;;;;;14.10;5.27;;;39.30;6.40;;;;;;4874851;29;20458;-77
2022/06/19 17:40:37;;;;;;;10.50;5.90;;;39.40;6.20;;;;;;4877529;29;20454;-76
2022/06/19 17:43:19;;;;;;;8.23;5.30;;;39.40;6.20;;;;;;4890549;29;20460;-77
2022/06/19 17:45:49;;;;;;;11.60;5.30;;;39.40;5.90;;;;;;4869555;29;20585;-76
2022/06/19 17:48:25;;;;;;;9.00;5.33;;;39.70;6.10;;;;;;4859938;29;20619;-75
2022/06/19 17:50:57;;;;;;;17.70;6.33;;;39.70;6.00;;;;;;4860119;29;20464;-77
2022/06/19 17:53:43;;;;;;;7.27;5.00;;;39.60;6.00;;;;;;4859167;29;20473;-77
2022/06/19 17:56:38;;;;;;;14.33;5.60;;;39.30;6.20;;;;;;4859359;29;20485;-76
2022/06/19 17:59:20;;;;;;;6.30;5.43;;;39.00;6.90;;;;;;4860673;29;20446;-76
2022/06/19 18:01:49;;;;;;;15.00;4.40;;;38.90;7.30;;;;;;4861417;29;20955;-77
2022/06/19 18:04:19;;;;;;;8.47;5.30;;;38.80;7.00;;;;;;4862290;29;20835;-77
2022/06/19 18:06:48;;;;;;;11.47;5.80;;;38.70;7.20;;;;;;4862098;29;20481;-77
2022/06/19 18:09:22;;;;;;;16.60;5.97;;;38.30;8.20;;;;;;4863377;29;20472;-77
2022/06/19 18:11:49;;;;;;;13.20;5.17;;;38.20;8.10;;;;;;4863246;29;20659;-77
2022/06/19 18:14:23;;;;;;;12.70;6.03;;;38.30;8.20;;;;;;4865890;29;20461;-77
2022/06/19 18:19:35;;;;;;;14.03;5.60;;;38.10;8.80;;;;;;4863251;29;20852;-78
2022/06/19 18:22:03;;;;;;;13.20;5.70;;;38.00;9.00;;;;;;4864919;29;20476;-78
2022/06/19 18:24:30;;;;;;;9.57;5.80;;;38.00;9.10;;;;;;4867352;29;20485;-77
2022/06/19 18:27:01;;;;;;;11.97;5.83;;;37.80;9.50;;;;;;4872828;29;20557;-76
2022/06/19 18:29:33;;;;;;;7.27;5.77;;;37.70;9.50;;;;;;4871474;29;20484;-77
2022/06/19 18:32:03;;;;;;;12.80;6.07;;;37.70;9.50;;;;;;4866666;29;20472;-77
2022/06/19 18:34:30;;;;;;;11.70;5.97;;;37.50;9.40;;;;;;4862802;29;20522;-78
2022/06/19 18:36:59;;;;;;;9.73;5.77;;;37.30;10.50;;;;;;4861398;29;20482;-76
2022/06/19 18:39:31;;;;;;;8.00;6.00;;;37.10;10.30;;;;;;4861134;29;20498;-78
2022/06/19 18:41:59;;;;;;;16.87;6.83;;;36.70;10.70;;;;;;4861420;29;20480;-77
2022/06/19 18:44:27;;;;;;;11.83;6.30;;;36.30;11.50;;;;;;4861038;29;20500;-78
2022/06/19 18:46:57;;;;;;;12.30;6.43;;;35.90;12.30;;;;;;4862321;29;20498;-77
2022/06/19 18:49:28;;;;;;;13.90;6.60;;;35.60;12.80;;;;;;4879765;29;20483;-79
2022/06/19 18:52:00;;;;;;;12.67;5.97;;;35.40;12.70;;;;;;4863247;29;20475;-77
2022/06/19 18:54:30;;;;;;;9.40;5.80;;;35.20;12.60;;;;;;4861632;29;20470;-76
2022/06/19 18:56:58;;;;;;;10.07;6.60;;;35.00;12.50;;;;;;4873194;29;20504;-76
2022/06/19 18:59:25;;;;;;;12.73;6.30;;;34.60;12.90;;;;;;4881749;29;20966;-77
2022/06/19 19:01:53;;;;;;;13.50;6.67;;;34.50;13.80;;;;;;4884776;29;20556;-77
2022/06/19 19:04:20;;;;;;;11.67;6.40;;;34.30;13.70;;;;;;4883497;29;20591;-77
2022/06/19 19:06:51;;;;;;;11.40;6.30;;;34.20;13.60;;;;;;4886821;29;20541;-78
2022/06/19 19:09:25;;;;;;;11.73;6.67;;;34.10;14.00;;;;;;4881759;29;20469;-77
2022/06/19 19:11:54;;;;;;;13.03;6.70;;;33.90;14.30;;;;;;4879678;29;20471;-77
2022/06/19 19:14:24;;;;;;;13.00;5.93;;;33.80;14.60;;;;;;4882792;29;20484;-77
2022/06/19 19:16:52;;;;;;;12.13;6.33;;;33.60;15.00;;;;;;4883576;29;20567;-77
2022/06/19 19:19:21;;;;;;;8.17;6.50;;;33.50;15.20;;;;;;4888500;29;20527;-77
2022/06/19 19:21:49;;;;;;;10.97;7.00;;;33.40;15.50;;;;;;4871337;29;20483;-76
2022/06/19 19:24:21;;;;;;;11.93;7.43;;;33.30;17.40;;;;;;4882126;29;20493;-77
2022/06/19 19:26:53;;;;;;;12.50;7.50;;;32.50;20.20;;;;;;4888812;29;20506;-77
2022/06/19 19:29:25;;;;;;;13.00;6.97;;;31.90;22.50;;;;;;4890018;29;20487;-77
2022/06/19 19:31:52;;;;;;;19.67;7.43;;;31.40;24.30;;;;;;4881768;29;20543;-76
2022/06/19 19:34:23;;;;;;;13.63;8.20;;;30.90;26.20;;;;;;4895504;29;20551;-77
2022/06/19 19:36:51;;;;;;;21.93;9.43;;;30.50;27.30;;;;;;4890630;29;20488;-77
2022/06/19 19:39:19;;;;;;;19.33;7.70;;;30.10;27.00;;;;;;4873021;29;20465;-77
2022/06/19 19:41:48;;;;;;;14.20;8.10;;;29.80;28.10;;;;;;4889778;29;20468;-79
2022/06/19 19:44:18;;;;;;;13.93;7.80;;;29.60;28.50;;;;;;4881629;29;20507;-77
2022/06/19 19:46:49;;;;;;;18.07;8.00;;;29.40;28.80;;;;;;4885670;29;20499;-76
2022/06/19 19:49:20;;;;;;;16.07;7.50;;;29.10;29.30;;;;;;4881613;29;20816;-77
2022/06/19 19:51:48;;;;;;;10.70;6.80;;;29.00;29.30;;;;;;4873469;29;20481;-77
2022/06/19 19:54:21;;;;;;;16.17;8.00;;;28.80;29.60;;;;;;4880453;29;20466;-79
2022/06/19 19:56:51;;;;;;;14.13;7.57;;;28.50;30.10;;;;;;4891831;29;20492;-78
2022/06/19 19:59:23;;;;;;;15.23;7.13;;;28.50;30.30;;;;;;4888411;29;20461;-77
2022/06/19 20:01:52;;;;;;;17.03;6.83;;;28.20;30.10;;;;;;4889617;29;20749;-77
2022/06/19 20:04:25;;;;;;;10.47;6.60;;;28.10;30.40;;;;;;4887391;29;21033;-79
2022/06/19 20:12:24;;;;;;;8.70;6.93;;;27.70;30.90;;;;;;4878143;29;20573;-78
2022/06/19 20:14:58;;;;;;;9.83;6.10;;;27.60;31.10;;;;;;4882593;29;20452;-77
2022/06/19 20:17:25;;;;;;;19.80;6.90;;;27.50;31.10;;;;;;4915984;23;20506;-79
2022/06/19 20:19:52;;;;;;;13.93;7.13;;;27.40;31.10;;;;;;4884132;29;20455;-78
2022/06/19 20:22:23;;;;;;;12.67;6.57;;;27.30;31.10;;;;;;4887441;29;20880;-79
2022/06/19 20:24:54;;;;;;;17.83;6.30;;;27.30;31.40;;;;;;4888807;29;20501;-80
2022/06/19 20:27:24;;;;;;;14.90;6.50;;;27.10;31.50;;;;;;4871570;29;20535;-79
2022/06/19 20:29:54;;;;;;;11.33;6.13;;;27.00;32.10;;;;;;4870444;29;20597;-78
2022/06/19 20:32:27;;;;;;;17.67;7.27;;;26.90;32.30;;;;;;4874510;29;20465;-81
2022/06/19 20:34:54;;;;;;;11.10;6.07;;;26.80;32.30;;;;;;4871675;29;20466;-78
2022/06/19 20:37:22;;;;;;;13.10;6.10;;;26.70;32.20;;;;;;4869820;29;21050;-79
2022/06/19 20:39:50;;;;;;;15.30;6.37;;;26.60;32.60;;;;;;4874540;29;20532;-78
2022/06/19 20:42:21;;;;;;;12.17;6.30;;;26.50;32.80;;;;;;4878823;29;20472;-80
2022/06/19 20:44:49;;;;;;;14.60;5.90;;;26.40;32.90;;;;;;4883270;29;20495;-80
2022/06/19 20:47:20;;;;;;;15.90;6.33;;;26.30;33.30;;;;;;4882397;29;20532;-79
2022/06/19 20:49:51;;;;;;;9.90;5.83;;;26.30;33.40;;;;;;4879140;29;20494;-82
2022/06/19 20:52:22;;;;;;;10.93;6.30;;;26.20;33.50;;;;;;4881700;29;20494;-79
2022/06/19 20:54:52;;;;;;;12.10;6.00;;;26.20;33.90;;;;;;4879002;29;20479;-80
2022/06/19 20:57:19;;;;;;;6.47;5.73;;;26.10;33.90;;;;;;4876552;29;20535;-80
2022/06/19 20:59:46;;;;;;;19.33;6.30;;;26.10;33.90;;;;;;4868504;29;20468;-79
2022/06/19 21:02:14;;;;;;;12.10;5.80;;;26.00;33.90;;;;;;4872184;29;20515;-81
2022/06/19 21:04:41;;;;;;;14.77;6.40;;;26.00;33.80;;;;;;4882096;29;20518;-79
2022/06/19 21:07:17;;;;;;;9.30;6.23;;;25.90;33.80;;;;;;4878348;29;20473;-82
2022/06/19 21:09:44;;;;;;;10.17;5.67;;;25.80;33.70;;;;;;4884070;29;20435;-81
2022/06/19 21:12:12;;;;;;;15.17;6.00;;;25.80;33.70;;;;;;4879719;29;20439;-78
2022/06/19 21:14:39;;;;;;;14.67;6.90;;;25.80;33.70;;;;;;4876767;29;20819;-80
2022/06/19 21:17:05;;;;;;;13.30;5.97;;;25.70;33.60;;;;;;4867084;29;20498;-77
2022/06/19 21:19:32;;;;;;;13.63;5.80;;;25.70;33.60;;;;;;4864985;29;20512;-79
2022/06/19 21:21:59;;;;;;;9.70;5.73;;;25.60;34.30;;;;;;4866041;29;20473;-80
2022/06/19 21:24:31;;;;;;;19.43;5.60;;;25.50;34.40;;;;;;4867422;29;20485;-78
2022/06/19 21:26:59;;;;;;;9.57;5.40;;;25.30;35.00;;;;;;4875277;29;20445;-82
2022/06/19 21:29:26;;;;;;;8.30;5.87;;;25.30;35.20;;;;;;4877385;29;20466;-80
2022/06/19 21:31:54;;;;;;;15.87;6.63;;;25.20;35.10;;;;;;4874262;29;20464;-78
2022/06/19 21:34:21;;;;;;;11.80;5.70;;;25.10;35.50;;;;;;4873075;29;20531;-78
2022/06/19 21:36:48;;;;;;;10.30;6.00;;;25.10;35.20;;;;;;4876235;29;20429;-78
2022/06/19 21:39:20;;;;;;;10.13;5.60;;;25.10;35.10;;;;;;4884133;29;20466;-78
2022/06/19 21:41:50;;;;;;;11.57;6.00;;;25.10;35.50;;;;;;4883951;29;20442;-77
2022/06/19 21:44:18;;;;;;;7.90;5.40;;;25.00;35.70;;;;;;4876170;29;20421;-76
2022/06/19 21:46:46;;;;;;;11.00;5.47;;;24.90;35.60;;;;;;4871842;29;20469;-77
2022/06/19 21:49:13;;;;;;;12.53;5.37;;;24.90;35.60;;;;;;4869429;29;20462;-78
2022/06/19 21:51:45;;;;;;;14.10;5.63;;;24.90;35.90;;;;;;4865787;29;20901;-77
2022/06/19 21:54:13;;;;;;;11.57;5.37;;;24.80;36.10;;;;;;4868078;29;20462;-78
2022/06/19 21:56:40;;;;;;;8.50;5.57;;;24.80;36.00;;;;;;4865162;29;20964;-77
2022/06/19 21:59:10;;;;;;;10.53;5.47;;;24.80;36.20;;;;;;4863183;29;20440;-77
2022/06/19 22:01:37;;;;;;;10.93;5.37;;;24.80;36.20;;;;;;4863553;29;20887;-77
2022/06/19 22:04:05;;;;;;;23.83;6.13;;;24.80;36.30;;;;;;4864843;29;20921;-77
2022/06/19 22:06:38;;;;;;;13.43;5.80;;;24.80;36.50;;;;;;4863950;29;20505;-78
2022/06/19 22:09:05;;;;;;;16.70;5.70;;;24.80;36.50;;;;;;4861814;29;20494;-78
2022/06/19 22:14:24;;;;;;;8.60;5.73;;;24.60;36.80;;;;;;4861962;29;20442;-78
2022/06/19 22:16:51;;;;;;;9.33;5.37;;;24.60;37.00;;;;;;4860839;29;20561;-77
2022/06/19 22:19:19;;;;;;;5.67;5.13;;;24.60;37.10;;;;;;4861363;29;20845;-77
2022/06/19 22:21:46;;;;;;;10.37;5.30;;;24.50;37.20;;;;;;4862301;29;20492;-77
2022/06/19 22:24:20;;;;;;;11.70;5.87;;;24.40;38.40;;;;;;4870772;29;20441;-77
2022/06/19 22:26:49;;;;;;;14.40;5.87;;;24.30;37.90;;;;;;4866762;29;20469;-77
2022/06/19 22:29:16;;;;;;;13.50;5.30;;;24.20;38.20;;;;;;4863755;29;20458;-76
2022/06/19 22:31:44;;;;;;;13.30;6.20;;;24.20;38.50;;;;;;4860987;29;20886;-77
2022/06/19 22:34:11;;;;;;;7.80;5.17;;;24.10;38.80;;;;;;4863258;29;20451;-77
2022/06/19 22:36:40;;;;;;;9.17;5.30;;;24.10;39.10;;;;;;4862464;29;20953;-77
2022/06/19 22:39:14;;;;;;;14.47;5.50;;;24.10;39.10;;;;;;4862476;29;20444;-78
2022/06/19 22:41:41;;;;;;;11.53;5.50;;;24.10;39.20;;;;;;4865261;29;20426;-77
2022/06/19 22:44:18;;;;;;;13.07;5.73;;;24.10;39.40;;;;;;4865353;29;20635;-76
2022/06/19 22:46:47;;;;;;;6.97;5.70;;;24.10;39.50;;;;;;4865440;29;20445;-78
2022/06/19 22:49:16;;;;;;;10.90;5.93;;;24.00;39.40;;;;;;4864813;29;20465;-77
2022/06/19 22:51:44;;;;;;;13.07;5.90;;;24.10;39.60;;;;;;4866447;29;20464;-77
2022/06/19 22:54:11;;;;;;;12.03;5.50;;;24.00;40.50;;;;;;4868047;29;20852;-77
2022/06/19 22:56:39;;;;;;;11.27;4.83;;;24.00;39.80;;;;;;4868596;29;20907;-78
2022/06/19 23:02:04;;;;;;;11.43;7.00;;;24.00;39.90;;;;;;4846616;29;20439;-78
2022/06/19 23:04:34;;;;;;;11.87;6.17;;;23.90;40.00;;;;;;4862498;29;20469;-78
2022/06/19 23:07:01;;;;;;;12.03;5.93;;;23.90;40.40;;;;;;4869163;29;20482;-77
2022/06/19 23:09:31;;;;;;;11.13;5.80;;;23.90;40.40;;;;;;4868228;29;20666;-77
2022/06/19 23:11:58;;;;;;;13.93;6.07;;;23.80;40.50;;;;;;4870504;29;20433;-77
2022/06/19 23:14:25;;;;;;;12.37;5.90;;;23.80;40.60;;;;;;4869741;29;20479;-77
2022/06/19 23:16:56;;;;;;;12.60;6.27;;;23.80;40.80;;;;;;4867867;29;20466;-77
2022/06/19 23:19:30;;;;;;;6.40;4.93;;;23.80;41.00;;;;;;4868890;29;20439;-78
2022/06/19 23:21:58;;;;;;;8.03;5.73;;;23.80;40.90;;;;;;4884731;29;20428;-77
2022/06/19 23:24:33;;;;;;;6.73;5.60;;;23.80;41.10;;;;;;4874668;29;20521;-77
2022/06/19 23:27:00;;;;;;;11.83;5.60;;;23.70;41.50;;;;;;4883717;29;20461;-77
2022/06/19 23:29:27;;;;;;;13.13;6.27;;;23.70;42.10;;;;;;4870818;29;20436;-76
2022/06/19 23:31:54;;;;;;;9.60;5.50;;;23.60;42.20;;;;;;4867231;29;20458;-77
2022/06/19 23:34:22;;;;;;;9.50;5.87;;;23.70;42.30;;;;;;4869887;29;20458;-77
2022/06/19 23:36:53;;;;;;;13.40;6.73;;;23.60;42.20;;;;;;4869524;29;20469;-77
2022/06/19 23:39:26;;;;;;;7.60;5.70;;;23.60;42.20;;;;;;4868916;29;20468;-77
2022/06/19 23:41:53;;;;;;;11.00;6.40;;;23.50;42.10;;;;;;4866597;29;20444;-77
2022/06/19 23:44:20;;;;;;;13.93;6.03;;;23.50;42.10;;;;;;4871041;29;20464;-77
2022/06/19 23:46:48;;;;;;;10.70;5.60;;;23.50;42.10;;;;;;4868007;29;21005;-76
2022/06/19 23:49:15;;;;;;;12.53;6.03;;;23.50;42.10;;;;;;4870230;29;20468;-76
2022/06/19 23:51:42;;;;;;;14.20;6.13;;;23.40;42.00;;;;;;4867265;29;20808;-77
2022/06/19 23:54:10;;;;;;;14.93;6.80;;;23.40;42.00;;;;;;4865441;29;20974;-75
2022/06/19 23:56:38;;;;;;;9.07;6.17;;;23.30;42.70;;;;;;4865343;29;20533;-76
2022/06/19 23:59:10;;;;;;;14.00;6.37;;;23.30;43.00;;;;;;4865780;29;20958;-76
